Richmond, California
Current Conditions -  °F | °C
As of 8:53 PM on Friday 24 Oct 2014 (Local Time) from KOAK Reporting Station
Scattered Clouds Scattered Clouds  
Wind Chill: 65°   Ceiling: Unl
Heat Index: 65°   Visibility: 10mi
Dew Point: 54°   Wind: 13mph
Humidity: 68%   Direction: 180°S
Pressure: 29.91"   Gusts: NA
Location:  37.94°N, 122.34°W
Report Text: KOAK 250353Z 18011KT 10SM FEW015 SCT200 18/12 A2991 RMK AO2 SLP126 T01830122
Loading
Personal Weather Stations






























Interactive Weather Map
Tropical Storm Tracking
New forecast layout! Learn more

10-Day Weather Forecast

Advertisements
Track Severe Weather on mobile